createdAt,value
2017-06-21T00:00:23.419Z,14.04
2017-06-21T00:01:18.528Z,14.04
2017-06-21T00:02:19.527Z,13.90
2017-06-21T00:03:13.661Z,13.92
2017-06-21T00:04:01.682Z,13.83
2017-06-21T00:04:55.718Z,13.79
2017-06-21T00:05:49.716Z,13.78
2017-06-21T00:06:44.739Z,13.74
2017-06-21T00:07:39.833Z,13.64
2017-06-21T00:08:28.830Z,13.68
2017-06-21T00:09:17.870Z,13.75
2017-06-21T00:10:11.847Z,13.73
2017-06-21T00:11:05.997Z,13.72
2017-06-21T00:12:12.003Z,13.68
2017-06-21T00:13:12.099Z,13.61
2017-06-21T00:14:07.080Z,13.62
2017-06-21T00:14:55.884Z,13.64
2017-06-21T00:15:50.074Z,13.63
2017-06-21T00:16:50.189Z,13.68
2017-06-21T00:17:44.370Z,13.61
2017-06-21T00:18:44.005Z,13.61
2017-06-21T00:19:33.331Z,13.59
2017-06-21T00:20:21.428Z,13.50
2017-06-21T00:21:10.185Z,13.36
2017-06-21T00:22:05.231Z,13.28
2017-06-21T00:22:59.541Z,13.19
2017-06-21T00:23:59.309Z,13.09
2017-06-21T00:24:59.444Z,13.04
2017-06-21T00:25:48.538Z,13.06
2017-06-21T00:26:42.525Z,12.98
2017-06-21T00:27:48.736Z,12.96
2017-06-21T00:28:42.732Z,12.98
2017-06-21T00:29:31.742Z,13.06
2017-06-21T00:30:26.780Z,13.11
2017-06-21T00:31:20.760Z,13.12
2017-06-21T00:32:15.795Z,13.16
2017-06-21T00:33:15.697Z,13.14
2017-06-21T00:34:10.122Z,13.18
2017-06-21T00:35:04.857Z,13.15
2017-06-21T00:35:59.815Z,13.08
2017-06-21T00:36:53.826Z,13.08
2017-06-21T00:37:49.131Z,13.03
2017-06-21T00:38:38.107Z,12.98
2017-06-21T00:39:33.156Z,13.00
2017-06-21T00:40:32.998Z,13.02
2017-06-21T00:41:22.121Z,12.96
2017-06-21T00:42:16.036Z,12.92
2017-06-21T00:43:11.396Z,12.99
2017-06-21T00:44:11.140Z,13.04
2017-06-21T00:45:17.167Z,12.98
2017-06-21T00:46:11.236Z,12.91
2017-06-21T00:47:06.298Z,12.87
2017-06-21T00:48:06.312Z,12.78
2017-06-21T00:49:00.306Z,12.76
2017-06-21T00:49:54.386Z,12.81
2017-06-21T00:50:48.406Z,12.80
2017-06-21T00:51:43.403Z,12.76
2017-06-21T00:52:37.519Z,12.73
2017-06-21T00:53:31.621Z,12.71
2017-06-21T00:54:31.585Z,12.65
2017-06-21T00:55:31.621Z,12.60
2017-06-21T00:56:25.629Z,12.56
2017-06-21T00:57:14.674Z,12.56
2017-06-21T00:58:08.966Z,12.48
2017-06-21T00:59:02.773Z,12.46
2017-06-21T00:59:57.756Z,12.42
2017-06-21T01:00:46.813Z,12.36
2017-06-21T01:01:41.901Z,12.33
2017-06-21T01:02:29.898Z,12.28
2017-06-21T01:03:29.953Z,12.25
2017-06-21T01:04:24.987Z,12.20
2017-06-21T01:05:24.984Z,12.15
2017-06-21T01:06:20.045Z,12.08
2017-06-21T01:07:14.248Z,12.04
2017-06-21T01:08:14.399Z,11.96
2017-06-21T01:09:08.197Z,11.95
2017-06-21T01:09:57.201Z,11.94
2017-06-21T01:10:51.261Z,11.94
2017-06-21T01:11:57.253Z,11.99
2017-06-21T01:12:51.280Z,11.91
2017-06-21T01:13:45.290Z,11.88
2017-06-21T01:14:34.368Z,11.84
2017-06-21T01:15:34.435Z,11.78
2017-06-21T01:16:28.499Z,11.70
2017-06-21T01:17:28.504Z,11.71
2017-06-21T01:18:23.531Z,11.74
2017-06-21T01:19:17.542Z,11.75
2017-06-21T01:20:06.603Z,11.78
2017-06-21T01:21:00.619Z,11.82
2017-06-21T01:22:00.666Z,11.83
2017-06-21T01:22:55.731Z,11.82
2017-06-21T01:23:51.060Z,11.76
2017-06-21T01:24:50.796Z,11.74
2017-06-21T01:25:44.927Z,11.66
2017-06-21T01:26:44.892Z,11.54
2017-06-21T01:27:39.886Z,11.52
2017-06-21T01:28:33.984Z,11.50
2017-06-21T01:29:29.251Z,11.48
2017-06-21T01:30:23.023Z,11.46
2017-06-21T01:31:24.034Z,11.43
2017-06-21T01:32:12.095Z,11.40
2017-06-21T01:33:01.218Z,11.38
2017-06-21T01:33:55.271Z,11.34
2017-06-21T01:34:50.191Z,11.32
2017-06-21T01:35:44.257Z,11.31
2017-06-21T01:36:39.305Z,11.30
2017-06-21T01:37:33.309Z,11.32
2017-06-21T01:38:27.365Z,11.36
2017-06-21T01:39:21.397Z,11.38
2017-06-21T01:40:15.520Z,11.33
2017-06-21T01:41:16.736Z,11.26
2017-06-21T01:42:11.508Z,11.22
2017-06-21T01:43:00.602Z,11.14
2017-06-21T01:43:55.559Z,11.10
2017-06-21T01:44:49.585Z,11.06
2017-06-21T01:45:43.677Z,11.04
2017-06-21T01:46:32.676Z,11.03
2017-06-21T01:47:32.736Z,10.97
2017-06-21T01:48:27.784Z,10.97
2017-06-21T01:49:21.783Z,11.03
2017-06-21T01:50:21.873Z,11.10
2017-06-21T01:51:15.916Z,11.10
2017-06-21T01:52:21.916Z,11.04
2017-06-21T01:53:16.098Z,10.92
2017-06-21T01:54:10.994Z,10.87
2017-06-21T01:55:05.048Z,10.82
2017-06-21T01:56:05.309Z,10.75
2017-06-21T01:56:54.187Z,10.72
2017-06-21T01:57:48.120Z,10.72
2017-06-21T01:58:36.168Z,10.69
2017-06-21T01:59:25.226Z,10.63
2017-06-21T02:00:13.286Z,10.58
2017-06-21T02:01:07.306Z,10.60
2017-06-21T02:02:01.412Z,10.58
2017-06-21T02:02:55.692Z,10.60
2017-06-21T02:03:55.414Z,10.66
2017-06-21T02:04:44.474Z,10.65
2017-06-21T02:05:39.498Z,10.67
2017-06-21T02:06:33.526Z,10.66
2017-06-21T02:07:28.580Z,10.62
2017-06-21T02:08:17.809Z,10.58
2017-06-21T02:09:12.683Z,10.52
2017-06-21T02:10:07.015Z,10.49
2017-06-21T02:11:06.700Z,10.38
2017-06-21T02:12:00.770Z,10.39
2017-06-21T02:12:55.119Z,10.39
2017-06-21T02:13:48.866Z,10.38
2017-06-21T02:14:43.917Z,10.50
2017-06-21T02:15:37.932Z,10.50
2017-06-21T02:16:26.978Z,10.49
2017-06-21T02:17:20.990Z,10.48
2017-06-21T02:18:16.330Z,10.46
2017-06-21T02:19:10.048Z,10.45
2017-06-21T02:20:05.099Z,10.44
2017-06-21T02:21:00.116Z,10.41
2017-06-21T02:21:54.358Z,10.42
2017-06-21T02:22:49.497Z,10.48
2017-06-21T02:23:38.310Z,10.46
2017-06-21T02:24:26.314Z,10.44
2017-06-21T02:25:26.401Z,10.42
2017-06-21T02:26:26.375Z,10.39
2017-06-21T02:27:14.400Z,10.37
2017-06-21T02:28:02.629Z,10.34
2017-06-21T02:28:51.678Z,10.28
2017-06-21T02:29:45.573Z,10.20
2017-06-21T02:30:39.596Z,10.20
2017-06-21T02:31:33.602Z,10.18
2017-06-21T02:32:33.934Z,10.21
2017-06-21T02:33:22.951Z,10.18
2017-06-21T02:34:17.781Z,10.24
2017-06-21T02:35:12.811Z,10.30
2017-06-21T02:36:06.844Z,10.32
2017-06-21T02:37:01.889Z,10.28
2017-06-21T02:37:55.897Z,10.24
2017-06-21T02:38:43.969Z,10.20
2017-06-21T02:39:38.109Z,10.20
2017-06-21T02:40:39.051Z,10.24
2017-06-21T02:41:33.071Z,10.29
2017-06-21T02:42:33.403Z,10.36
2017-06-21T02:43:22.143Z,10.34
2017-06-21T02:44:16.228Z,10.30
2017-06-21T02:45:16.282Z,10.34
2017-06-21T02:46:10.219Z,10.35
2017-06-21T02:47:04.274Z,10.37
2017-06-21T02:47:52.321Z,10.36
2017-06-21T02:48:52.432Z,10.38
2017-06-21T02:49:41.421Z,10.36
2017-06-21T02:50:29.483Z,10.31
2017-06-21T02:51:18.500Z,10.28
2017-06-21T02:52:18.502Z,10.26
2017-06-21T02:53:18.539Z,10.26
2017-06-21T02:54:13.561Z,10.24
2017-06-21T02:55:13.620Z,10.19
2017-06-21T02:56:13.682Z,10.15
2017-06-21T02:57:07.713Z,10.14
2017-06-21T02:58:07.754Z,10.14
2017-06-21T02:59:01.772Z,10.08
2017-06-21T02:59:55.793Z,10.04
2017-06-21T03:00:55.806Z,10.03
2017-06-21T03:01:50.925Z,9.98
2017-06-21T03:02:50.896Z,10.00
2017-06-21T03:03:45.942Z,9.99
2017-06-21T03:04:39.987Z,10.03
2017-06-21T03:05:34.980Z,10.06
2017-06-21T03:06:36.049Z,10.12
2017-06-21T03:07:31.411Z,10.15
2017-06-21T03:08:31.094Z,10.09
2017-06-21T03:09:31.246Z,10.04
2017-06-21T03:10:31.265Z,10.04
2017-06-21T03:11:31.216Z,10.00
2017-06-21T03:12:31.582Z,9.94
2017-06-21T03:13:31.317Z,9.92
2017-06-21T03:14:31.283Z,9.87
2017-06-21T03:15:31.367Z,9.87
2017-06-21T03:16:31.390Z,9.88
2017-06-21T03:17:31.729Z,9.87
2017-06-21T03:18:31.688Z,9.86
2017-06-21T03:19:31.707Z,9.80
2017-06-21T03:20:25.711Z,9.90
2017-06-21T03:21:19.736Z,9.88
2017-06-21T03:22:19.818Z,9.96
2017-06-21T03:23:13.827Z,9.94
2017-06-21T03:24:08.827Z,9.99
2017-06-21T03:25:03.954Z,9.98
2017-06-21T03:25:57.954Z,10.02
2017-06-21T03:26:53.005Z,10.10
2017-06-21T03:27:53.965Z,10.24
2017-06-21T03:28:48.054Z,10.20
2017-06-21T03:29:43.101Z,10.26
2017-06-21T03:30:43.148Z,10.29
2017-06-21T03:31:38.207Z,10.36
2017-06-21T03:32:33.294Z,10.35
2017-06-21T03:33:27.269Z,10.41
2017-06-21T03:34:27.299Z,10.44
2017-06-21T03:35:16.379Z,10.44
2017-06-21T03:36:10.409Z,10.44
2017-06-21T03:37:10.448Z,10.50
2017-06-21T03:38:04.537Z,10.40
2017-06-21T03:39:05.423Z,10.38
2017-06-21T03:40:11.508Z,10.29
2017-06-21T03:41:06.570Z,10.31
2017-06-21T03:42:01.565Z,10.36
2017-06-21T03:42:49.604Z,10.37
2017-06-21T03:43:49.662Z,10.37
2017-06-21T03:44:44.681Z,10.44
2017-06-21T03:45:38.772Z,10.50
2017-06-21T03:46:34.198Z,10.55
2017-06-21T03:47:27.816Z,10.58
2017-06-21T03:48:21.893Z,10.59
2017-06-21T03:49:16.915Z,10.50
2017-06-21T03:50:10.984Z,10.44
2017-06-21T03:50:58.966Z,10.38
2017-06-21T03:52:00.096Z,10.30
2017-06-21T03:53:00.048Z,10.30
2017-06-21T03:54:00.100Z,10.30
2017-06-21T03:55:00.123Z,10.36
2017-06-21T03:56:00.291Z,10.38
2017-06-21T03:57:00.159Z,10.49
2017-06-21T03:57:55.206Z,10.51
2017-06-21T03:58:50.227Z,10.46
2017-06-21T03:59:51.304Z,10.42
2017-06-21T04:00:51.309Z,10.51
2017-06-21T04:01:45.354Z,10.48
2017-06-21T04:02:45.445Z,10.50
2017-06-21T04:03:45.471Z,10.51
2017-06-21T04:04:45.450Z,10.51
2017-06-21T04:05:39.469Z,10.60
2017-06-21T04:06:34.595Z,10.64
2017-06-21T04:07:35.693Z,10.75
2017-06-21T04:08:35.465Z,10.79
2017-06-21T04:09:29.478Z,10.76
2017-06-21T04:10:23.564Z,10.76
2017-06-21T04:11:17.530Z,10.79
2017-06-21T04:12:18.555Z,10.78
2017-06-21T04:13:06.657Z,10.80
2017-06-21T04:14:06.609Z,10.82
2017-06-21T04:15:00.705Z,10.75
2017-06-21T04:15:54.751Z,10.80
2017-06-21T04:16:54.794Z,10.83
2017-06-21T04:17:42.901Z,10.86
2017-06-21T04:18:43.851Z,10.81
2017-06-21T04:19:43.985Z,10.80
2017-06-21T04:20:38.924Z,10.80
2017-06-21T04:21:27.005Z,10.81
2017-06-21T04:22:15.149Z,10.83
2017-06-21T04:23:15.035Z,10.86
2017-06-21T04:24:10.131Z,10.92
2017-06-21T04:25:10.192Z,10.97
2017-06-21T04:26:05.385Z,11.06
2017-06-21T04:27:05.461Z,11.10
2017-06-21T04:28:00.488Z,11.16
2017-06-21T04:28:54.515Z,11.19
2017-06-21T04:29:49.480Z,11.24
2017-06-21T04:30:43.397Z,11.22
2017-06-21T04:31:38.411Z,11.27
2017-06-21T04:32:38.375Z,11.28
2017-06-21T04:33:33.471Z,11.25
2017-06-21T04:34:27.495Z,11.40
2017-06-21T04:35:33.571Z,11.54
2017-06-21T04:36:28.688Z,11.60
2017-06-21T04:37:22.638Z,11.72
2017-06-21T04:38:17.696Z,11.78
2017-06-21T04:39:17.711Z,11.86
2017-06-21T04:40:11.819Z,11.99
2017-06-21T04:41:11.816Z,12.08
2017-06-21T04:42:05.818Z,12.21
2017-06-21T04:43:06.948Z,12.33
2017-06-21T04:44:00.968Z,12.46
2017-06-21T04:44:54.939Z,12.52
2017-06-21T04:45:50.003Z,12.60
2017-06-21T04:46:45.007Z,12.66
2017-06-21T04:47:33.363Z,12.71
2017-06-21T04:48:34.108Z,12.73
2017-06-21T04:49:34.183Z,12.78
2017-06-21T04:50:22.206Z,12.86
2017-06-21T04:51:17.336Z,12.98
2017-06-21T04:52:11.311Z,12.94
2017-06-21T04:53:00.589Z,12.98
2017-06-21T04:53:55.379Z,13.04
2017-06-21T04:54:55.655Z,13.21
2017-06-21T04:55:50.571Z,13.24
2017-06-21T04:56:38.748Z,13.31
2017-06-21T04:57:32.850Z,13.38
2017-06-21T04:58:27.612Z,13.40
2017-06-21T04:59:27.709Z,13.30
2017-06-21T05:00:21.979Z,13.48
2017-06-21T05:01:16.965Z,13.58
2017-06-21T05:02:10.990Z,13.66
2017-06-21T05:03:05.899Z,13.66
2017-06-21T05:04:07.103Z,14.00
2017-06-21T05:05:01.148Z,14.02
2017-06-21T05:05:55.172Z,14.13
2017-06-21T05:06:49.243Z,14.11
2017-06-21T05:07:38.317Z,14.21
2017-06-21T05:08:32.342Z,14.28
2017-06-21T05:09:20.421Z,14.44
2017-06-21T05:10:09.464Z,14.42
2017-06-21T05:11:04.481Z,14.42
2017-06-21T05:12:04.493Z,14.47
2017-06-21T05:12:53.530Z,14.44
2017-06-21T05:13:47.634Z,14.56
2017-06-21T05:14:47.633Z,14.64
2017-06-21T05:15:41.689Z,14.64
2017-06-21T05:16:35.825Z,14.62
2017-06-21T05:17:30.779Z,14.48
2017-06-21T05:18:19.857Z,14.67
2017-06-21T05:19:08.904Z,14.73
2017-06-21T05:20:02.963Z,14.68
2017-06-21T05:20:57.968Z,14.70
2017-06-21T05:21:59.027Z,14.63
2017-06-21T05:22:54.079Z,14.81
2017-06-21T05:23:48.105Z,15.02
2017-06-21T05:24:48.108Z,15.05
2017-06-21T05:25:48.242Z,15.12
2017-06-21T05:26:42.286Z,15.17
2017-06-21T05:27:42.292Z,15.20
2017-06-21T05:28:37.289Z,14.88
2017-06-21T05:29:37.370Z,14.77
2017-06-21T05:30:37.466Z,14.81
2017-06-21T05:31:37.614Z,15.03
2017-06-21T05:32:37.555Z,15.04
2017-06-21T05:33:37.736Z,15.16
2017-06-21T05:34:37.552Z,15.30
2017-06-21T05:35:32.656Z,15.38
2017-06-21T05:36:32.833Z,15.41
2017-06-21T05:37:27.756Z,15.42
2017-06-21T05:38:21.724Z,15.45
2017-06-21T05:39:16.820Z,15.55
2017-06-21T05:40:11.843Z,15.58
2017-06-21T05:41:06.917Z,15.71
2017-06-21T05:42:02.028Z,15.83
2017-06-21T05:42:55.987Z,15.97
2017-06-21T05:43:56.040Z,16.07
2017-06-21T05:44:50.149Z,16.33
2017-06-21T05:45:50.179Z,16.64
2017-06-21T05:46:44.238Z,16.68
2017-06-21T05:47:38.317Z,16.70
2017-06-21T05:48:27.346Z,16.84
2017-06-21T05:49:21.353Z,16.83
2017-06-21T05:50:21.676Z,16.72
2017-06-21T05:51:21.420Z,16.61
2017-06-21T05:52:21.542Z,16.60
2017-06-21T05:53:16.617Z,16.68
2017-06-21T05:54:10.632Z,16.72
2017-06-21T05:55:10.690Z,16.63
2017-06-21T05:56:05.751Z,16.63
2017-06-21T05:56:54.785Z,16.56
2017-06-21T05:57:48.820Z,16.87
2017-06-21T05:58:43.646Z,16.83
2017-06-21T05:59:38.689Z,16.85
2017-06-21T06:00:32.940Z,16.90
2017-06-21T06:01:26.824Z,16.86
2017-06-21T06:02:16.099Z,16.86
2017-06-21T06:03:10.031Z,16.85
2017-06-21T06:04:09.999Z,16.99
2017-06-21T06:05:11.065Z,17.22
2017-06-21T06:06:05.261Z,17.30
2017-06-21T06:07:00.383Z,17.50
2017-06-21T06:08:01.406Z,17.63
2017-06-21T06:08:55.480Z,17.55
2017-06-21T06:09:49.266Z,17.72
2017-06-21T06:10:49.289Z,17.88
2017-06-21T06:11:38.386Z,17.82
2017-06-21T06:12:34.042Z,17.93
2017-06-21T06:13:22.486Z,18.02
2017-06-21T06:14:17.524Z,18.04
2017-06-21T06:15:17.570Z,17.96
2017-06-21T06:16:11.666Z,18.12
2017-06-21T06:17:11.649Z,18.27
2017-06-21T06:18:06.230Z,18.35
2017-06-21T06:19:06.005Z,18.22
2017-06-21T06:20:00.014Z,18.34
2017-06-21T06:21:01.140Z,18.25
2017-06-21T06:21:55.182Z,18.40
2017-06-21T06:22:43.153Z,18.48
2017-06-21T06:23:32.565Z,18.36
2017-06-21T06:24:27.359Z,18.62
2017-06-21T06:25:28.279Z,19.02
2017-06-21T06:26:17.358Z,19.20
2017-06-21T06:27:11.470Z,19.22
2017-06-21T06:28:11.525Z,19.37
2017-06-21T06:29:05.577Z,19.10
2017-06-21T06:30:00.691Z,19.14
2017-06-21T06:30:54.703Z,18.87
2017-06-21T06:31:42.756Z,18.75
2017-06-21T06:32:36.871Z,18.98
2017-06-21T06:33:30.833Z,19.15
2017-06-21T06:34:24.889Z,19.24
2017-06-21T06:35:19.718Z,19.40
2017-06-21T06:36:19.925Z,19.59
2017-06-21T06:37:13.892Z,19.56
2017-06-21T06:38:14.069Z,19.49
2017-06-21T06:39:08.004Z,19.70
2017-06-21T06:40:03.016Z,20.04
2017-06-21T06:40:52.233Z,19.79
2017-06-21T06:41:46.295Z,20.02
2017-06-21T06:42:40.469Z,20.00
2017-06-21T06:43:29.496Z,20.19
2017-06-21T06:44:24.462Z,20.00
2017-06-21T06:45:13.345Z,20.03
2017-06-21T06:46:07.395Z,20.14
2017-06-21T06:47:01.492Z,20.57
2017-06-21T06:47:55.497Z,20.92
2017-06-21T06:48:50.602Z,21.40
2017-06-21T06:49:50.632Z,22.09
2017-06-21T06:50:50.677Z,22.68
2017-06-21T06:51:45.707Z,22.58
2017-06-21T06:52:41.050Z,22.29
2017-06-21T06:53:34.922Z,22.64
2017-06-21T06:54:23.937Z,22.52
2017-06-21T06:55:19.123Z,21.84
2017-06-21T06:56:13.183Z,21.34
2017-06-21T06:57:08.236Z,21.20
2017-06-21T06:58:02.331Z,21.46
2017-06-21T06:58:50.460Z,21.46
2017-06-21T06:59:51.464Z,21.00
2017-06-21T07:00:51.311Z,20.93
2017-06-21T07:01:40.359Z,20.99
2017-06-21T07:02:29.405Z,21.18
2017-06-21T07:03:23.487Z,21.40
2017-06-21T07:04:17.544Z,21.60
2017-06-21T07:05:11.595Z,21.54
2017-06-21T07:06:00.952Z,21.60
2017-06-21T07:06:48.919Z,21.32
2017-06-21T07:07:38.136Z,21.16
2017-06-21T07:08:37.820Z,21.56
2017-06-21T07:09:32.044Z,22.10
2017-06-21T07:10:31.946Z,22.56
2017-06-21T07:11:26.997Z,22.85
2017-06-21T07:12:21.286Z,22.59
2017-06-21T07:13:15.066Z,22.69
2017-06-21T07:14:04.320Z,22.85
2017-06-21T07:14:59.482Z,23.27
2017-06-21T07:15:47.537Z,23.58
2017-06-21T07:16:41.492Z,23.69
2017-06-21T07:17:30.397Z,23.54
2017-06-21T07:18:24.571Z,23.03
2017-06-21T07:19:19.508Z,22.25
2017-06-21T07:20:13.574Z,22.28
2017-06-21T07:21:13.630Z,22.42
2017-06-21T07:22:07.708Z,22.48
2017-06-21T07:22:56.293Z,22.92
2017-06-21T07:23:49.926Z,23.05
2017-06-21T07:24:38.874Z,23.38
2017-06-21T07:25:33.989Z,23.38
2017-06-21T07:26:28.978Z,23.47
2017-06-21T07:27:23.026Z,23.37
2017-06-21T07:28:18.465Z,23.59
2017-06-21T07:29:06.395Z,23.52
2017-06-21T07:30:00.498Z,22.91
2017-06-21T07:30:54.560Z,23.14
2017-06-21T07:31:49.438Z,23.05
2017-06-21T07:32:43.698Z,22.89
2017-06-21T07:33:43.503Z,23.40
2017-06-21T07:34:38.766Z,23.65
2017-06-21T07:35:33.592Z,23.37
2017-06-21T07:36:22.646Z,23.50
2017-06-21T07:37:17.878Z,23.82
2017-06-21T07:38:11.824Z,23.42
2017-06-21T07:39:06.840Z,23.93
2017-06-21T07:40:01.011Z,23.68
2017-06-21T07:40:55.079Z,22.94
2017-06-21T07:41:43.026Z,22.55
2017-06-21T07:42:32.293Z,22.83
2017-06-21T07:43:26.407Z,23.37
2017-06-21T07:44:21.472Z,23.56
2017-06-21T07:45:15.463Z,23.80
2017-06-21T07:46:09.289Z,23.76
2017-06-21T07:47:03.559Z,23.72
2017-06-21T07:47:51.593Z,23.84
2017-06-21T07:48:46.717Z,24.30
2017-06-21T07:49:40.589Z,24.13
2017-06-21T07:50:35.604Z,23.91
2017-06-21T07:51:36.889Z,24.03
2017-06-21T07:52:25.720Z,23.85
2017-06-21T07:53:20.969Z,23.80
2017-06-21T07:54:15.990Z,23.68
2017-06-21T07:55:10.013Z,23.40
2017-06-21T07:55:58.102Z,23.66
2017-06-21T07:56:52.184Z,24.25
2017-06-21T07:57:41.441Z,24.29
2017-06-21T07:58:35.397Z,24.52
2017-06-21T07:59:30.489Z,25.06
2017-06-21T08:00:18.787Z,25.44
2017-06-21T08:01:07.392Z,25.54
2017-06-21T08:02:07.573Z,25.59
2017-06-21T08:02:56.598Z,25.36
2017-06-21T08:03:51.749Z,25.57
2017-06-21T08:04:40.814Z,25.56
2017-06-21T08:05:36.051Z,25.46
2017-06-21T08:06:35.790Z,25.45
2017-06-21T08:07:31.051Z,25.18
2017-06-21T08:08:24.922Z,25.40
2017-06-21T08:09:14.090Z,25.58
2017-06-21T08:10:08.280Z,26.08
2017-06-21T08:11:02.319Z,26.48
2017-06-21T08:11:57.314Z,26.61
2017-06-21T08:12:51.430Z,26.72
2017-06-21T08:13:45.654Z,26.74
2017-06-21T08:14:34.652Z,26.45
2017-06-21T08:15:29.681Z,26.59
2017-06-21T08:16:24.996Z,26.64
2017-06-21T08:17:18.839Z,26.61
2017-06-21T08:18:18.946Z,26.05
2017-06-21T08:19:14.038Z,26.22
2017-06-21T08:20:08.114Z,26.26
2017-06-21T08:20:56.158Z,25.46
2017-06-21T08:21:51.241Z,24.98
2017-06-21T08:22:45.326Z,24.74
2017-06-21T08:23:39.347Z,24.86
2017-06-21T08:24:39.421Z,25.30
2017-06-21T08:25:27.500Z,25.73
2017-06-21T08:26:21.566Z,25.79
2017-06-21T08:27:15.937Z,26.28
2017-06-21T08:28:10.713Z,26.34
2017-06-21T08:29:04.726Z,26.68
2017-06-21T08:29:59.853Z,27.26
2017-06-21T08:30:53.960Z,27.40
2017-06-21T08:31:54.035Z,27.32
2017-06-21T08:32:48.424Z,27.41
2017-06-21T08:33:43.212Z,27.58
2017-06-21T08:34:37.275Z,26.52
2017-06-21T08:35:32.320Z,25.38
2017-06-21T08:36:26.395Z,25.35
2017-06-21T08:37:14.441Z,25.54
2017-06-21T08:38:03.863Z,25.64
2017-06-21T08:39:03.566Z,25.82
2017-06-21T08:39:58.635Z,25.89
2017-06-21T08:40:52.737Z,26.15
2017-06-21T08:41:47.829Z,26.52
2017-06-21T08:42:36.851Z,26.57
2017-06-21T08:43:30.934Z,26.90
2017-06-21T08:44:20.034Z,26.38
2017-06-21T08:45:14.138Z,26.60
2017-06-21T08:46:09.250Z,27.12
2017-06-21T08:47:03.297Z,27.69
2017-06-21T08:48:04.387Z,28.29
2017-06-21T08:48:53.493Z,28.49
2017-06-21T08:49:47.570Z,28.01
2017-06-21T08:50:41.659Z,27.95
2017-06-21T08:51:30.753Z,27.94
2017-06-21T08:52:30.817Z,28.39
2017-06-21T08:53:24.891Z,28.20
2017-06-21T08:54:18.978Z,27.64
2017-06-21T08:55:08.100Z,27.62
2017-06-21T08:56:02.143Z,27.80
2017-06-21T08:56:56.205Z,27.46
2017-06-21T08:57:50.338Z,27.31
2017-06-21T08:58:39.713Z,27.21
2017-06-21T08:59:28.501Z,27.06
2017-06-21T09:00:17.574Z,27.35
2017-06-21T09:01:12.684Z,27.62
2017-06-21T09:02:07.761Z,27.43
2017-06-21T09:03:02.855Z,27.68
2017-06-21T09:03:58.195Z,27.81
2017-06-21T09:04:45.951Z,28.18
2017-06-21T09:05:35.063Z,28.53
2017-06-21T09:06:30.163Z,28.42
2017-06-21T09:07:19.216Z,28.31
2017-06-21T09:08:14.305Z,27.61
2017-06-21T09:09:08.400Z,27.33
2017-06-21T09:09:57.532Z,27.11
2017-06-21T09:10:51.575Z,26.60
2017-06-21T09:11:40.633Z,26.68
2017-06-21T09:12:29.751Z,26.75
2017-06-21T09:13:18.831Z,27.03
2017-06-21T09:14:12.927Z,26.99
2017-06-21T09:15:07.013Z,27.29
2017-06-21T09:16:02.098Z,27.61
2017-06-21T09:16:56.159Z,27.67
2017-06-21T09:17:50.285Z,27.78
2017-06-21T09:18:45.348Z,27.80
2017-06-21T09:19:40.474Z,27.82
2017-06-21T09:20:35.481Z,27.60
2017-06-21T09:21:29.554Z,27.80
2017-06-21T09:22:18.674Z,26.94
2017-06-21T09:23:12.764Z,26.10
2017-06-21T09:24:07.848Z,25.29
2017-06-21T09:25:01.836Z,25.17
2017-06-21T09:25:55.972Z,25.09
2017-06-21T09:26:56.017Z,25.07
2017-06-21T09:27:45.077Z,25.29
2017-06-21T09:28:39.177Z,25.80
2017-06-21T09:29:39.244Z,26.03
2017-06-21T09:30:33.294Z,26.18
2017-06-21T09:31:33.335Z,25.68
2017-06-21T09:32:33.419Z,25.17
2017-06-21T09:33:28.419Z,25.08
2017-06-21T09:34:23.535Z,25.10
2017-06-21T09:35:12.613Z,25.10
2017-06-21T09:36:12.669Z,25.51
2017-06-21T09:37:00.775Z,25.40
2017-06-21T09:37:48.830Z,25.34
2017-06-21T09:38:42.857Z,25.42
2017-06-21T09:39:30.963Z,25.23
2017-06-21T09:40:19.000Z,24.94
2017-06-21T09:41:19.106Z,25.06
2017-06-21T09:42:13.167Z,25.20
2017-06-21T09:43:08.221Z,25.34
2017-06-21T09:44:02.273Z,25.67
2017-06-21T09:44:50.360Z,25.76
2017-06-21T09:45:44.448Z,26.03
2017-06-21T09:46:32.566Z,26.15
2017-06-21T09:47:20.645Z,26.42
2017-06-21T09:48:20.662Z,26.43
2017-06-21T09:49:14.718Z,26.20
2017-06-21T09:50:14.858Z,26.21
2017-06-21T09:51:08.916Z,25.97
2017-06-21T09:51:57.973Z,25.66
2017-06-21T09:52:52.047Z,25.21
2017-06-21T09:53:46.052Z,25.38
2017-06-21T09:54:40.473Z,25.44
2017-06-21T09:55:40.211Z,25.04
2017-06-21T09:56:35.242Z,24.85
2017-06-21T09:57:35.318Z,24.58
2017-06-21T09:58:29.395Z,24.40
2017-06-21T09:59:30.430Z,24.78
2017-06-21T10:00:30.544Z,25.00
2017-06-21T10:01:19.598Z,25.22
2017-06-21T10:02:08.655Z,25.62
2017-06-21T10:03:02.595Z,25.78
2017-06-21T10:04:02.767Z,25.95
2017-06-21T10:04:51.850Z,26.12
2017-06-21T10:05:45.939Z,25.90
2017-06-21T10:06:45.996Z,25.49
2017-06-21T10:07:35.095Z,25.27
2017-06-21T10:08:29.110Z,25.58
2017-06-21T10:09:30.177Z,26.03
2017-06-21T10:10:30.279Z,26.54
2017-06-21T10:11:25.358Z,27.07
2017-06-21T10:12:20.434Z,27.54
2017-06-21T10:13:08.541Z,27.79
2017-06-21T10:14:02.607Z,27.90
2017-06-21T10:15:03.668Z,28.14
2017-06-21T10:15:52.779Z,28.17
2017-06-21T10:16:47.855Z,28.02
2017-06-21T10:17:43.131Z,27.33
2017-06-21T10:18:31.975Z,26.83
2017-06-21T10:19:21.108Z,26.62
2017-06-21T10:20:15.163Z,26.28
2017-06-21T10:21:10.236Z,26.34
2017-06-21T10:22:04.303Z,26.59
2017-06-21T10:22:58.400Z,26.64
2017-06-21T10:23:52.506Z,26.70
2017-06-21T10:24:40.557Z,26.86
2017-06-21T10:25:36.032Z,26.99
2017-06-21T10:26:24.729Z,26.18
2017-06-21T10:27:18.769Z,25.71
2017-06-21T10:28:18.834Z,25.54
2017-06-21T10:29:12.957Z,25.66
2017-06-21T10:30:06.992Z,25.71
2017-06-21T10:31:01.362Z,25.76
2017-06-21T10:31:55.139Z,25.93
2017-06-21T10:32:50.211Z,26.17
2017-06-21T10:33:45.306Z,26.40
2017-06-21T10:34:39.361Z,26.50
2017-06-21T10:35:45.508Z,26.58
2017-06-21T10:36:40.549Z,26.41
2017-06-21T10:37:29.637Z,26.19
2017-06-21T10:38:29.667Z,26.44
2017-06-21T10:39:17.720Z,26.77
2017-06-21T10:40:06.885Z,26.88
2017-06-21T10:41:00.947Z,27.12
2017-06-21T10:42:01.035Z,27.23
2017-06-21T10:42:55.068Z,27.07
2017-06-21T10:43:44.031Z,27.02
2017-06-21T10:44:33.252Z,27.06
2017-06-21T10:45:21.377Z,26.85
2017-06-21T10:46:09.521Z,26.72
2017-06-21T10:46:58.548Z,26.74
2017-06-21T10:47:46.629Z,26.69
2017-06-21T10:48:41.677Z,26.29
2017-06-21T10:49:30.775Z,26.15
2017-06-21T10:50:30.859Z,26.21
2017-06-21T10:51:19.958Z,26.28
2017-06-21T10:52:14.037Z,26.40
2017-06-21T10:53:09.122Z,26.51
2017-06-21T10:54:09.197Z,26.54
2017-06-21T10:55:03.329Z,26.42
2017-06-21T10:55:57.378Z,26.42
2017-06-21T10:56:45.477Z,26.60
2017-06-21T10:57:34.561Z,26.60
2017-06-21T10:58:34.621Z,26.60
2017-06-21T10:59:23.705Z,26.86
2017-06-21T11:00:18.776Z,27.34
2017-06-21T11:01:12.827Z,27.55
2017-06-21T11:02:06.943Z,27.52
2017-06-21T11:03:07.033Z,27.30
2017-06-21T11:04:01.073Z,27.22
2017-06-21T11:05:01.215Z,27.33
2017-06-21T11:05:55.255Z,27.70
2017-06-21T11:06:43.325Z,27.77
2017-06-21T11:07:32.433Z,27.67
2017-06-21T11:08:27.998Z,27.80
2017-06-21T11:09:16.621Z,28.20
2017-06-21T11:10:05.707Z,28.39
2017-06-21T11:10:53.742Z,28.76
2017-06-21T11:11:47.865Z,28.96
2017-06-21T11:12:41.978Z,28.62
2017-06-21T11:13:31.314Z,28.41
2017-06-21T11:14:19.119Z,28.60
2017-06-21T11:15:13.150Z,28.72
2017-06-21T11:16:02.325Z,29.01
2017-06-21T11:16:51.342Z,29.27
2017-06-21T11:17:40.427Z,29.48
2017-06-21T11:18:34.816Z,29.63
2017-06-21T11:19:28.622Z,29.88
2017-06-21T11:20:22.723Z,29.61
2017-06-21T11:21:16.800Z,29.45
2017-06-21T11:22:16.919Z,29.34
2017-06-21T11:23:10.965Z,29.64
2017-06-21T11:24:05.283Z,29.71
2017-06-21T11:24:53.144Z,29.94
2017-06-21T11:25:41.253Z,30.02
2017-06-21T11:26:36.344Z,30.07
2017-06-21T11:27:25.423Z,30.26
2017-06-21T11:28:14.474Z,30.53
2017-06-21T11:29:09.597Z,30.24
2017-06-21T11:30:03.660Z,29.94
2017-06-21T11:30:57.770Z,30.12
2017-06-21T11:31:51.848Z,30.35
2017-06-21T11:32:46.949Z,30.33
2017-06-21T11:33:42.040Z,30.05
2017-06-21T11:34:36.428Z,29.20
2017-06-21T11:35:25.195Z,29.16
2017-06-21T11:36:20.282Z,29.30
2017-06-21T11:37:15.330Z,29.74
2017-06-21T11:38:09.440Z,29.83
2017-06-21T11:39:09.518Z,29.85
2017-06-21T11:40:03.974Z,29.84
2017-06-21T11:40:58.699Z,29.40
2017-06-21T11:41:53.847Z,28.96
2017-06-21T11:42:42.914Z,28.88
2017-06-21T11:43:36.941Z,28.74